Terminal Aerodrome Forecast
Issued by NWS Des Moines, IA

Home | Current Version | Previous Version | Text Only | Print | Product List | Glossary On
Versions: 1 2 3 4 5 6 7 8 9 10 11 12 13 14 15 16 17 18 19 20 21 22 23
000
FTUS43 KDMX 230520
TAFALO
TAF
KALO 230520Z 2306/2406 16006KT P6SM SKC
     FM231400 26010KT P6SM VCSH BKN100
     FM231700 29011KT P6SM BKN140
     FM231800 30012G18KT P6SM BKN220
     FM232200 31016G24KT P6SM SCT030 BKN100
     FM232300 31017G28KT P6SM VCSH BKN030 OVC090 WS020/31040KT=

USA.gov is the U.S. government's official web portal to all federal, state and local government web resources and services.